createdAt,value
2018-09-01T00:01:50.479Z,11.70
2018-09-01T00:04:21.111Z,11.60
2018-09-01T00:06:51.791Z,11.70
2018-09-01T00:09:22.464Z,11.70
2018-09-01T00:11:53.147Z,11.70
2018-09-01T00:14:23.786Z,11.70
2018-09-01T00:16:54.463Z,11.70
2018-09-01T00:19:25.117Z,11.70
2018-09-01T00:21:55.794Z,11.70
2018-09-01T00:24:27.230Z,11.70
2018-09-01T00:26:57.895Z,11.70
2018-09-01T00:29:28.599Z,11.70
2018-09-01T00:31:59.248Z,11.60
2018-09-01T00:34:29.956Z,11.60
2018-09-01T00:37:00.600Z,11.60
2018-09-01T00:39:31.275Z,11.60
2018-09-01T00:42:01.957Z,11.50
2018-09-01T00:44:32.644Z,11.50
2018-09-01T00:47:03.635Z,11.50
2018-09-01T00:49:34.312Z,11.50
2018-09-01T00:52:05.348Z,11.40
2018-09-01T00:54:35.999Z,11.40
2018-09-01T00:57:06.717Z,11.40
2018-09-01T00:59:37.359Z,11.40
2018-09-01T01:02:08.041Z,11.40
2018-09-01T01:04:38.691Z,11.30
2018-09-01T01:07:09.679Z,11.30
2018-09-01T01:09:40.343Z,11.20
2018-09-01T01:12:11.028Z,11.20
2018-09-01T01:14:41.727Z,11.20
2018-09-01T01:17:12.388Z,11.10
2018-09-01T01:19:43.084Z,11.10
2018-09-01T01:22:13.737Z,11.10
2018-09-01T01:24:44.411Z,11.00
2018-09-01T01:27:15.412Z,11.00
2018-09-01T01:29:46.096Z,11.00
2018-09-01T01:32:16.767Z,10.90
2018-09-01T01:34:47.474Z,10.90
2018-09-01T01:37:18.116Z,10.90
2018-09-01T01:39:48.819Z,10.80
2018-09-01T01:42:20.257Z,10.80
2018-09-01T01:44:50.928Z,10.70
2018-09-01T01:47:21.732Z,10.70
2018-09-01T01:49:52.404Z,10.70
2018-09-01T01:52:23.049Z,10.70
2018-09-01T01:54:53.832Z,10.70
2018-09-01T01:57:24.547Z,10.60
2018-09-01T01:59:55.260Z,10.60
2018-09-01T02:02:25.944Z,10.60
2018-09-01T02:04:56.619Z,10.60
2018-09-01T02:07:27.280Z,10.60
2018-09-01T02:09:57.947Z,10.50
2018-09-01T02:12:28.603Z,10.50
2018-09-01T02:14:59.280Z,10.50
2018-09-01T02:17:29.978Z,10.40
2018-09-01T02:20:00.664Z,10.40
2018-09-01T02:22:31.628Z,10.30
2018-09-01T02:25:02.445Z,10.30
2018-09-01T02:27:33.123Z,10.20
2018-09-01T02:30:03.855Z,10.30
2018-09-01T02:32:34.725Z,10.30
2018-09-01T02:35:05.389Z,10.20
2018-09-01T02:37:36.261Z,10.20
2018-09-01T02:40:07.287Z,10.20
2018-09-01T02:42:37.960Z,10.10
2018-09-01T02:45:08.635Z,10.10
2018-09-01T02:47:39.320Z,10.00
2018-09-01T02:50:10.195Z,10.00
2018-09-01T02:52:40.843Z,10.00
2018-09-01T02:55:11.764Z,10.00
2018-09-01T02:57:42.419Z,10.00
2018-09-01T03:00:18.632Z,10.00
2018-09-01T03:02:49.325Z,10.00
2018-09-01T03:05:20.004Z,10.00
2018-09-01T03:07:50.700Z,10.00
2018-09-01T03:10:21.376Z,10.00
2018-09-01T03:12:52.050Z,10.00
2018-09-01T03:15:22.732Z,9.90
2018-09-01T03:17:53.756Z,10.00
2018-09-01T03:20:24.427Z,10.00
2018-09-01T03:22:55.083Z,10.00
2018-09-01T03:25:25.759Z,10.00
2018-09-01T03:27:56.416Z,10.10
2018-09-01T03:30:27.103Z,10.10
2018-09-01T03:32:57.972Z,10.00
2018-09-01T03:35:28.659Z,10.10
2018-09-01T03:37:59.642Z,10.10
2018-09-01T03:40:30.322Z,10.10
2018-09-01T03:43:01.015Z,10.10
2018-09-01T03:45:31.663Z,10.10
2018-09-01T03:48:02.385Z,10.10
2018-09-01T03:50:33.047Z,10.10
2018-09-01T03:53:04.068Z,10.10
2018-09-01T03:55:34.760Z,10.10
2018-09-01T03:58:06.057Z,10.10
2018-09-01T04:00:36.769Z,10.10
2018-09-01T04:03:07.413Z,10.00
2018-09-01T04:05:38.097Z,10.00
2018-09-01T04:08:08.759Z,10.10
2018-09-01T04:10:39.452Z,10.10
2018-09-01T04:13:10.109Z,10.10
2018-09-01T04:15:40.954Z,10.00
2018-09-01T04:18:11.609Z,10.00
2018-09-01T04:20:42.707Z,10.00
2018-09-01T04:23:13.432Z,9.90
2018-09-01T04:25:44.178Z,10.00
2018-09-01T04:28:14.819Z,10.00
2018-09-01T04:30:46.484Z,9.90
2018-09-01T04:33:17.173Z,9.90
2018-09-01T04:35:52.612Z,9.90
2018-09-01T04:38:23.316Z,9.90
2018-09-01T04:40:53.993Z,9.80
2018-09-01T04:43:24.671Z,9.80
2018-09-01T04:45:55.319Z,9.70
2018-09-01T04:51:02.984Z,9.70
2018-09-01T04:53:33.664Z,9.60
2018-09-01T04:56:04.311Z,9.60
2018-09-01T04:58:35.001Z,9.60
2018-09-01T05:01:05.733Z,9.50
2018-09-01T05:03:36.544Z,9.50
2018-09-01T05:06:07.193Z,9.50
2018-09-01T05:08:37.868Z,9.50
2018-09-01T05:11:08.530Z,9.50
2018-09-01T05:13:39.201Z,9.50
2018-09-01T05:16:09.903Z,9.50
2018-09-01T05:18:40.626Z,9.40
2018-09-01T05:21:11.306Z,9.40
2018-09-01T05:23:41.984Z,9.40
2018-09-01T05:26:12.644Z,9.40
2018-09-01T05:28:43.575Z,9.50
2018-09-01T05:31:14.243Z,9.40
2018-09-01T05:33:45.148Z,9.40
2018-09-01T05:36:15.241Z,9.40
2018-09-01T05:38:45.926Z,9.40
2018-09-01T05:41:16.803Z,9.50
2018-09-01T05:43:47.581Z,9.40
2018-09-01T05:46:18.324Z,9.40
2018-09-01T05:48:49.008Z,9.50
2018-09-01T05:51:19.656Z,9.50
2018-09-01T05:53:50.523Z,9.50
2018-09-01T05:56:21.167Z,9.50
2018-09-01T05:58:51.848Z,9.50
2018-09-01T06:01:22.517Z,9.50
2018-09-01T06:03:53.240Z,9.60
2018-09-01T06:06:23.898Z,9.60
2018-09-01T06:08:54.768Z,9.70
2018-09-01T06:11:25.424Z,9.70
2018-09-01T06:13:56.088Z,9.70
2018-09-01T06:16:26.727Z,9.70
2018-09-01T06:18:57.405Z,9.80
2018-09-01T06:21:28.069Z,9.80
2018-09-01T06:23:58.790Z,9.90
2018-09-01T06:26:29.693Z,10.00
2018-09-01T06:29:16.304Z,10.00
2018-09-01T06:32:07.319Z,10.10
2018-09-01T06:34:37.978Z,10.20
2018-09-01T06:37:08.652Z,10.30
2018-09-01T06:39:39.312Z,10.40
2018-09-01T06:42:10.049Z,10.40
2018-09-01T06:44:40.930Z,10.50
2018-09-01T06:47:11.623Z,10.50
2018-09-01T06:49:42.303Z,10.60
2018-09-01T06:52:12.943Z,10.70
2018-09-01T06:54:43.630Z,10.80
2018-09-01T06:57:14.324Z,10.90
2018-09-01T06:59:45.929Z,10.90
2018-09-01T07:02:17.523Z,11.00
2018-09-01T07:04:48.211Z,11.10
2018-09-01T07:07:18.879Z,11.10
2018-09-01T07:09:49.572Z,11.20
2018-09-01T07:12:20.225Z,11.30
2018-09-01T07:14:51.112Z,11.30
2018-09-01T07:17:21.833Z,11.50
2018-09-01T07:19:52.515Z,11.50
2018-09-01T07:22:23.194Z,11.60
2018-09-01T07:24:53.846Z,11.60
2018-09-01T07:27:24.536Z,11.70
2018-09-01T07:29:55.220Z,11.80
2018-09-01T07:32:25.908Z,11.90
2018-09-01T07:34:56.616Z,11.90
2018-09-01T07:37:27.350Z,12.00
2018-09-01T07:39:58.051Z,12.00
2018-09-01T07:42:28.766Z,12.10
2018-09-01T07:44:59.470Z,12.20
2018-09-01T07:47:30.148Z,12.30
2018-09-01T07:50:07.406Z,12.30
2018-09-01T07:52:38.230Z,12.40
2018-09-01T07:55:08.929Z,12.50
2018-09-01T07:57:39.797Z,12.60
2018-09-01T08:00:10.515Z,12.60
2018-09-01T08:02:41.375Z,12.70
2018-09-01T08:05:12.072Z,12.80
2018-09-01T08:07:42.778Z,12.80
2018-09-01T08:10:13.440Z,12.90
2018-09-01T08:12:44.140Z,13.00
2018-09-01T08:15:14.818Z,13.00
2018-09-01T08:17:45.482Z,13.10
2018-09-01T08:20:16.214Z,13.20
2018-09-01T08:22:47.082Z,13.30
2018-09-01T08:25:17.810Z,13.40
2018-09-01T08:27:48.459Z,13.50
2018-09-01T08:30:19.183Z,13.60
2018-09-01T08:32:50.413Z,13.60
2018-09-01T08:35:21.084Z,13.70
2018-09-01T08:37:51.743Z,13.80
2018-09-01T08:40:22.476Z,13.90
2018-09-01T08:42:53.320Z,14.00
2018-09-01T08:45:24.069Z,14.00
2018-09-01T08:47:54.865Z,14.10
2018-09-01T08:50:25.545Z,14.20
2018-09-01T08:52:56.224Z,14.30
2018-09-01T08:55:26.906Z,14.40
2018-09-01T08:57:57.628Z,14.50
2018-09-01T09:00:28.403Z,14.60
2018-09-01T09:02:59.079Z,14.70
2018-09-01T09:05:30.041Z,14.80
2018-09-01T09:08:00.836Z,14.90
2018-09-01T09:10:31.486Z,15.00
2018-09-01T09:13:02.179Z,15.10
2018-09-01T09:15:33.028Z,15.20
2018-09-01T09:18:03.710Z,15.30
2018-09-01T09:20:34.392Z,15.40
2018-09-01T09:23:06.141Z,15.50
2018-09-01T09:25:36.820Z,15.70
2018-09-01T09:28:07.483Z,15.90
2018-09-01T09:30:38.205Z,16.00
2018-09-01T09:33:08.931Z,16.10
2018-09-01T09:35:39.634Z,16.10
2018-09-01T09:38:10.304Z,16.20
2018-09-01T09:40:40.754Z,16.20
2018-09-01T09:43:11.322Z,16.30
2018-09-01T09:45:41.739Z,16.40
2018-09-01T09:48:12.115Z,16.40
2018-09-01T09:50:42.234Z,16.40
2018-09-01T09:53:12.633Z,16.60
2018-09-01T09:55:42.760Z,16.70
2018-09-01T09:58:13.799Z,16.80
2018-09-01T10:00:49.743Z,16.80
2018-09-01T10:03:20.056Z,16.90
2018-09-01T10:05:50.458Z,17.00
2018-09-01T10:08:20.827Z,17.30
2018-09-01T10:10:51.515Z,17.50
2018-09-01T10:13:22.347Z,17.70
2018-09-01T10:15:53.065Z,17.80
2018-09-01T10:18:23.920Z,18.00
2018-09-01T10:20:54.591Z,18.10
2018-09-01T10:23:25.228Z,18.10
2018-09-01T10:25:57.031Z,18.20
2018-09-01T10:28:29.007Z,18.30
2018-09-01T10:31:02.287Z,18.40
2018-09-01T10:33:34.688Z,18.50
2018-09-01T10:36:05.915Z,18.60
2018-09-01T10:38:37.089Z,18.70
2018-09-01T10:41:07.779Z,18.90
2018-09-01T10:43:38.475Z,19.00
2018-09-01T10:46:09.122Z,19.00
2018-09-01T10:48:39.823Z,19.10
2018-09-01T10:51:10.481Z,19.10
2018-09-01T10:53:41.377Z,19.10
2018-09-01T10:56:12.045Z,19.00
2018-09-01T10:58:42.715Z,19.10
2018-09-01T11:01:13.566Z,19.20
2018-09-01T11:03:44.273Z,19.30
2018-09-01T11:06:14.907Z,19.40
2018-09-01T11:08:45.588Z,19.40
2018-09-01T11:11:16.280Z,19.50
2018-09-01T11:13:46.960Z,19.50
2018-09-01T11:16:17.793Z,19.50
2018-09-01T11:18:48.455Z,19.50
2018-09-01T11:21:19.095Z,19.50
2018-09-01T11:23:49.773Z,19.60
2018-09-01T11:26:20.728Z,19.70
2018-09-01T11:28:51.478Z,19.80
2018-09-01T11:31:22.127Z,19.90
2018-09-01T11:33:53.117Z,20.10
2018-09-01T11:36:23.779Z,20.20
2018-09-01T11:38:54.354Z,20.20
2018-09-01T11:41:24.724Z,20.20
2018-09-01T11:43:55.391Z,20.10
2018-09-01T11:46:26.024Z,20.00
2018-09-01T11:48:56.691Z,20.00
2018-09-01T11:51:27.146Z,20.10
2018-09-01T11:53:58.050Z,20.20
2018-09-01T11:56:28.611Z,20.20
2018-09-01T11:58:59.128Z,20.30
2018-09-01T12:01:29.471Z,20.40
2018-09-01T12:03:59.867Z,20.50
2018-09-01T12:06:30.415Z,20.60
2018-09-01T12:09:00.818Z,20.70
2018-09-01T12:11:31.367Z,20.70
2018-09-01T12:14:01.945Z,20.70
2018-09-01T12:16:32.507Z,20.60
2018-09-01T12:19:02.938Z,20.50
2018-09-01T12:21:33.413Z,20.40
2018-09-01T12:24:04.107Z,20.50
2018-09-01T12:26:34.494Z,20.50
2018-09-01T12:29:05.417Z,20.60
2018-09-01T12:31:35.801Z,20.70
2018-09-01T12:34:06.388Z,20.80
2018-09-01T12:36:36.767Z,20.90
2018-09-01T12:39:07.383Z,20.90
2018-09-01T12:41:37.770Z,20.80
2018-09-01T12:44:08.131Z,20.80
2018-09-01T12:46:38.520Z,20.90
2018-09-01T12:49:08.886Z,20.90
2018-09-01T12:51:39.230Z,21.00
2018-09-01T12:54:09.607Z,21.00
2018-09-01T12:56:40.029Z,21.10
2018-09-01T12:59:10.472Z,21.10
2018-09-01T13:01:40.844Z,21.10
2018-09-01T13:04:11.235Z,21.20
2018-09-01T13:06:41.628Z,21.20
2018-09-01T13:09:12.009Z,21.30
2018-09-01T13:11:42.365Z,21.30
2018-09-01T13:14:12.756Z,21.40
2018-09-01T13:16:43.103Z,21.40
2018-09-01T13:19:13.479Z,21.30
2018-09-01T13:21:43.864Z,21.30
2018-09-01T13:24:14.216Z,21.10
2018-09-01T13:26:44.705Z,21.00
2018-09-01T13:29:15.080Z,20.90
2018-09-01T13:31:45.486Z,20.90
2018-09-01T13:34:15.922Z,21.00
2018-09-01T13:36:46.493Z,21.10
2018-09-01T13:39:16.851Z,21.10
2018-09-01T13:41:47.247Z,21.20
2018-09-01T13:44:17.954Z,21.30
2018-09-01T13:46:48.714Z,21.40
2018-09-01T13:49:19.108Z,21.50
2018-09-01T13:51:49.493Z,21.50
2018-09-01T13:54:20.144Z,21.60
2018-09-01T13:56:50.537Z,21.50
2018-09-01T13:59:20.879Z,21.50
2018-09-01T14:01:51.260Z,21.50
2018-09-01T14:04:21.633Z,21.60
2018-09-01T14:06:52.021Z,21.60
2018-09-01T14:09:22.380Z,21.50
2018-09-01T14:11:52.746Z,21.50
2018-09-01T14:14:23.158Z,21.50
2018-09-01T14:16:53.875Z,21.50
2018-09-01T14:19:24.268Z,21.50
2018-09-01T14:21:54.708Z,21.40
2018-09-01T14:24:25.088Z,21.40
2018-09-01T14:26:55.438Z,21.40
2018-09-01T14:29:25.852Z,21.40
2018-09-01T14:31:56.237Z,21.40
2018-09-01T14:34:26.632Z,21.30
2018-09-01T14:36:56.980Z,21.30
2018-09-01T14:39:27.372Z,21.30
2018-09-01T14:41:57.727Z,21.30
2018-09-01T14:44:28.120Z,21.30
2018-09-01T14:46:58.536Z,21.40
2018-09-01T14:49:29.059Z,21.30
2018-09-01T14:51:59.414Z,21.30
2018-09-01T14:54:29.791Z,21.30
2018-09-01T14:57:00.166Z,21.30
2018-09-01T14:59:30.588Z,21.20
2018-09-01T15:02:00.948Z,21.20
2018-09-01T15:04:31.352Z,21.20
2018-09-01T15:07:01.740Z,21.10
2018-09-01T15:09:32.115Z,21.10
2018-09-01T15:12:02.559Z,21.10
2018-09-01T15:14:32.899Z,21.20
2018-09-01T15:17:03.392Z,21.20
2018-09-01T15:19:34.141Z,21.20
2018-09-01T15:22:05.055Z,21.30
2018-09-01T15:24:35.413Z,21.20
2018-09-01T15:27:06.211Z,21.20
2018-09-01T15:29:36.591Z,21.20
2018-09-01T15:32:07.023Z,21.10
2018-09-01T15:34:37.376Z,21.10
2018-09-01T15:37:07.770Z,21.10
2018-09-01T15:39:38.158Z,21.10
2018-09-01T15:42:08.547Z,21.00
2018-09-01T15:44:38.959Z,21.00
2018-09-01T15:47:09.522Z,21.00
2018-09-01T15:49:39.911Z,21.00
2018-09-01T15:52:10.290Z,21.00
2018-09-01T15:54:40.653Z,20.90
2018-09-01T15:57:11.063Z,20.90
2018-09-01T15:59:41.723Z,20.90
2018-09-01T16:02:12.123Z,20.90
2018-09-01T16:04:42.483Z,20.80
2018-09-01T16:07:12.871Z,20.80
2018-09-01T16:09:43.231Z,20.80
2018-09-01T16:12:13.605Z,20.70
2018-09-01T16:14:43.971Z,20.70
2018-09-01T16:17:14.350Z,20.70
2018-09-01T16:19:44.740Z,20.70
2018-09-01T16:22:15.128Z,20.60
2018-09-01T16:24:45.671Z,20.60
2018-09-01T16:27:16.361Z,20.60
2018-09-01T16:29:47.005Z,20.60
2018-09-01T16:32:18.402Z,20.50
2018-09-01T16:34:48.947Z,20.50
2018-09-01T16:37:19.375Z,20.50
2018-09-01T16:39:49.769Z,20.40
2018-09-01T16:42:20.136Z,20.40
2018-09-01T16:44:50.518Z,20.30
2018-09-01T16:47:20.905Z,20.30
2018-09-01T16:49:51.256Z,20.20
2018-09-01T16:52:21.659Z,20.20
2018-09-01T16:54:52.022Z,20.10
2018-09-01T16:57:22.399Z,20.10
2018-09-01T16:59:52.771Z,20.00
2018-09-01T17:02:23.155Z,20.00
2018-09-01T17:04:53.864Z,19.90
2018-09-01T17:07:24.238Z,19.90
2018-09-01T17:09:54.596Z,19.90
2018-09-01T17:12:25.014Z,19.80
2018-09-01T17:14:55.387Z,19.80
2018-09-01T17:17:25.770Z,19.80
2018-09-01T17:19:56.132Z,19.70
2018-09-01T17:22:26.812Z,19.70
2018-09-01T17:24:57.449Z,19.60
2018-09-01T17:27:27.830Z,19.60
2018-09-01T17:29:58.211Z,19.60
2018-09-01T17:32:28.587Z,19.50
2018-09-01T17:34:58.945Z,19.40
2018-09-01T17:37:29.651Z,19.40
2018-09-01T17:40:00.335Z,19.40
2018-09-01T17:42:30.687Z,19.30
2018-09-01T17:45:01.369Z,19.20
2018-09-01T17:47:31.756Z,19.20
2018-09-01T17:50:02.618Z,19.10
2018-09-01T17:52:33.274Z,19.10
2018-09-01T17:55:03.723Z,19.00
2018-09-01T17:57:34.438Z,19.00
2018-09-01T18:00:05.389Z,19.00
2018-09-01T18:02:35.822Z,18.90
2018-09-01T18:05:07.106Z,18.80
2018-09-01T18:07:37.771Z,18.80
2018-09-01T18:10:09.160Z,18.70
2018-09-01T18:12:39.810Z,18.70
2018-09-01T18:15:10.496Z,18.60
2018-09-01T18:17:41.220Z,18.60
2018-09-01T18:20:11.867Z,18.50
2018-09-01T18:22:42.548Z,18.40
2018-09-01T18:25:13.235Z,18.30
2018-09-01T18:27:43.876Z,18.30
2018-09-01T18:30:14.583Z,18.20
2018-09-01T18:32:45.219Z,18.20
2018-09-01T18:35:15.913Z,18.10
2018-09-01T18:37:47.088Z,18.10
2018-09-01T18:40:17.767Z,18.00
2018-09-01T18:42:48.417Z,18.00
2018-09-01T18:45:19.090Z,17.90
2018-09-01T18:47:49.732Z,17.80
2018-09-01T18:50:20.404Z,17.80
2018-09-01T18:52:51.064Z,17.70
2018-09-01T18:55:21.736Z,17.60
2018-09-01T18:57:52.444Z,17.50
2018-09-01T19:00:23.319Z,17.40
2018-09-01T19:02:54.019Z,17.30
2018-09-01T19:05:24.896Z,17.20
2018-09-01T19:07:55.572Z,17.10
2018-09-01T19:10:26.242Z,17.10
2018-09-01T19:12:55.724Z,17.00
2018-09-01T19:15:26.768Z,16.90
2018-09-01T19:17:57.423Z,16.90
2018-09-01T19:20:28.122Z,16.80
2018-09-01T19:22:58.771Z,16.70
2018-09-01T19:25:29.459Z,16.70
2018-09-01T19:28:00.092Z,16.60
2018-09-01T19:30:30.761Z,16.50
2018-09-01T19:33:01.420Z,16.50
2018-09-01T19:35:32.069Z,16.40
2018-09-01T19:38:03.174Z,16.30
2018-09-01T19:40:33.856Z,16.20
2018-09-01T19:43:04.875Z,16.10
2018-09-01T19:45:35.720Z,16.10
2018-09-01T19:48:06.472Z,16.00
2018-09-01T19:50:37.120Z,15.90
2018-09-01T19:53:07.905Z,15.90
2018-09-01T19:55:38.760Z,15.80
2018-09-01T19:58:09.484Z,15.70
2018-09-01T20:00:40.176Z,15.70
2018-09-01T20:03:10.827Z,15.60
2018-09-01T20:05:41.544Z,15.50
2018-09-01T20:08:12.216Z,15.50
2018-09-01T20:10:42.900Z,15.40
2018-09-01T20:13:13.579Z,15.40
2018-09-01T20:15:44.243Z,15.30
2018-09-01T20:18:14.940Z,15.20
2018-09-01T20:20:45.626Z,15.10
2018-09-01T20:23:16.267Z,15.10
2018-09-01T20:25:47.287Z,15.00
2018-09-01T20:28:17.934Z,15.00
2018-09-01T20:30:48.664Z,14.90
2018-09-01T20:33:19.303Z,14.80
2018-09-01T20:35:55.048Z,14.80
2018-09-01T20:38:27.150Z,14.70
2018-09-01T20:40:57.829Z,14.60
2018-09-01T20:43:28.485Z,14.60
2018-09-01T20:45:59.183Z,14.50
2018-09-01T20:48:29.839Z,14.40
2018-09-01T20:51:00.511Z,14.40
2018-09-01T20:53:31.187Z,14.30
2018-09-01T20:56:01.845Z,14.30
2018-09-01T20:58:32.540Z,14.20
2018-09-01T21:01:03.589Z,14.10
2018-09-01T21:03:34.266Z,14.10
2018-09-01T21:06:05.261Z,14.00
2018-09-01T21:08:35.928Z,14.00
2018-09-01T21:11:07.099Z,13.90
2018-09-01T21:13:37.782Z,13.90
2018-09-01T21:16:08.415Z,13.90
2018-09-01T21:18:39.088Z,13.80
2018-09-01T21:21:09.732Z,13.70
2018-09-01T21:23:40.412Z,13.70
2018-09-01T21:26:11.064Z,13.60
2018-09-01T21:28:41.754Z,13.60
2018-09-01T21:31:12.436Z,13.50
2018-09-01T21:33:43.151Z,13.40
2018-09-01T21:36:13.874Z,13.40
2018-09-01T21:38:44.520Z,13.30
2018-09-01T21:41:15.196Z,13.30
2018-09-01T21:43:45.867Z,13.20
2018-09-01T21:46:16.544Z,13.20
2018-09-01T21:48:47.220Z,13.20
2018-09-01T21:51:17.868Z,13.20
2018-09-01T21:53:48.542Z,13.10
2018-09-01T21:56:19.210Z,13.10
2018-09-01T21:58:49.883Z,13.00
2018-09-01T22:01:25.834Z,13.10
2018-09-01T22:03:56.507Z,13.00
2018-09-01T22:06:27.147Z,13.00
2018-09-01T22:08:57.818Z,12.90
2018-09-01T22:11:28.477Z,12.90
2018-09-01T22:13:59.159Z,12.90
2018-09-01T22:16:29.851Z,12.80
2018-09-01T22:19:00.495Z,12.80
2018-09-01T22:21:31.177Z,12.80
2018-09-01T22:24:02.163Z,12.70
2018-09-01T22:26:32.836Z,12.70
2018-09-01T22:29:03.536Z,12.70
2018-09-01T22:31:34.209Z,12.70
2018-09-01T22:34:04.896Z,12.60
2018-09-01T22:36:35.558Z,12.60
2018-09-01T22:39:06.544Z,12.60
2018-09-01T22:41:37.199Z,12.60
2018-09-01T22:44:07.872Z,12.50
2018-09-01T22:46:38.558Z,12.50
2018-09-01T22:49:09.210Z,12.60
2018-09-01T22:51:39.964Z,12.50
2018-09-01T22:54:10.729Z,12.50
2018-09-01T22:56:41.395Z,12.40
2018-09-01T22:59:12.435Z,12.40
2018-09-01T23:01:43.144Z,12.40
2018-09-01T23:04:13.880Z,12.40
2018-09-01T23:06:44.561Z,12.40
2018-09-01T23:09:15.208Z,12.40
2018-09-01T23:11:45.876Z,12.40
2018-09-01T23:14:16.558Z,12.40
2018-09-01T23:16:47.405Z,12.50
2018-09-01T23:19:18.087Z,12.40
2018-09-01T23:21:48.799Z,12.40
2018-09-01T23:24:19.481Z,12.40
2018-09-01T23:26:50.134Z,12.40
2018-09-01T23:29:21.028Z,12.40
2018-09-01T23:31:51.685Z,12.40
2018-09-01T23:34:22.351Z,12.40
2018-09-01T23:36:53.056Z,12.40
2018-09-01T23:39:23.751Z,12.40
2018-09-01T23:41:54.552Z,12.40
2018-09-01T23:44:25.220Z,12.40
2018-09-01T23:46:56.046Z,12.30
2018-09-01T23:49:26.727Z,12.30
2018-09-01T23:51:57.384Z,12.30
2018-09-01T23:54:28.055Z,12.30
2018-09-01T23:56:58.737Z,12.30
2018-09-01T23:59:29.407Z,12.30
